sensor_id;sensor_type;location;lat;lon;timestamp;P1;durP1;ratioP1;P2;durP2;ratioP2
73954;SDS011;62306;52.516;13.290;2023-05-28T00:01:33;17.80;;;7.15;;
73954;SDS011;62306;52.516;13.290;2023-05-28T00:03:59;14.27;;;8.65;;
73954;SDS011;62306;52.516;13.290;2023-05-28T00:06:26;17.42;;;9.57;;
73954;SDS011;62306;52.516;13.290;2023-05-28T00:08:53;16.77;;;10.10;;
73954;SDS011;62306;52.516;13.290;2023-05-28T00:11:20;12.63;;;6.65;;
73954;SDS011;62306;52.516;13.290;2023-05-28T00:13:50;23.48;;;11.25;;
73954;SDS011;62306;52.516;13.290;2023-05-28T00:16:17;16.17;;;7.18;;
73954;SDS011;62306;52.516;13.290;2023-05-28T00:18:45;17.38;;;7.50;;
73954;SDS011;62306;52.516;13.290;2023-05-28T00:21:11;13.98;;;7.07;;
73954;SDS011;62306;52.516;13.290;2023-05-28T00:23:39;18.65;;;6.30;;
73954;SDS011;62306;52.516;13.290;2023-05-28T00:26:05;15.93;;;6.95;;
73954;SDS011;62306;52.516;13.290;2023-05-28T00:28:32;15.25;;;5.60;;
73954;SDS011;62306;52.516;13.290;2023-05-28T00:31:01;19.58;;;9.27;;
73954;SDS011;62306;52.516;13.290;2023-05-28T00:33:28;17.45;;;8.13;;
73954;SDS011;62306;52.516;13.290;2023-05-28T00:35:54;16.95;;;7.10;;
73954;SDS011;62306;52.516;13.290;2023-05-28T00:38:21;14.15;;;7.97;;
73954;SDS011;62306;52.516;13.290;2023-05-28T00:40:48;16.65;;;7.97;;
73954;SDS011;62306;52.516;13.290;2023-05-28T00:43:15;14.70;;;6.47;;
73954;SDS011;62306;52.516;13.290;2023-05-28T00:45:44;13.23;;;5.88;;
73954;SDS011;62306;52.516;13.290;2023-05-28T00:48:14;15.88;;;5.53;;
73954;SDS011;62306;52.516;13.290;2023-05-28T00:50:42;16.48;;;5.43;;
73954;SDS011;62306;52.516;13.290;2023-05-28T00:53:09;16.58;;;8.40;;
73954;SDS011;62306;52.516;13.290;2023-05-28T00:55:39;15.73;;;6.28;;
73954;SDS011;62306;52.516;13.290;2023-05-28T00:58:06;15.25;;;6.20;;
73954;SDS011;62306;52.516;13.290;2023-05-28T01:00:33;16.98;;;8.05;;
73954;SDS011;62306;52.516;13.290;2023-05-28T01:03:01;17.77;;;8.32;;
73954;SDS011;62306;52.516;13.290;2023-05-28T01:05:30;13.48;;;7.07;;
73954;SDS011;62306;52.516;13.290;2023-05-28T01:07:59;12.20;;;5.93;;
73954;SDS011;62306;52.516;13.290;2023-05-28T01:10:26;11.57;;;5.68;;
73954;SDS011;62306;52.516;13.290;2023-05-28T01:12:54;12.20;;;5.57;;
73954;SDS011;62306;52.516;13.290;2023-05-28T01:15:21;16.15;;;7.00;;
73954;SDS011;62306;52.516;13.290;2023-05-28T01:17:49;15.43;;;7.30;;
73954;SDS011;62306;52.516;13.290;2023-05-28T01:20:22;14.75;;;5.85;;
73954;SDS011;62306;52.516;13.290;2023-05-28T01:22:52;15.13;;;7.80;;
73954;SDS011;62306;52.516;13.290;2023-05-28T01:25:23;12.77;;;6.40;;
73954;SDS011;62306;52.516;13.290;2023-05-28T01:27:51;27.63;;;10.80;;
73954;SDS011;62306;52.516;13.290;2023-05-28T01:30:19;15.10;;;6.03;;
73954;SDS011;62306;52.516;13.290;2023-05-28T01:32:46;17.33;;;6.60;;
73954;SDS011;62306;52.516;13.290;2023-05-28T01:35:13;17.17;;;8.18;;
73954;SDS011;62306;52.516;13.290;2023-05-28T01:37:41;13.07;;;6.03;;
73954;SDS011;62306;52.516;13.290;2023-05-28T01:40:12;14.38;;;7.80;;
73954;SDS011;62306;52.516;13.290;2023-05-28T01:42:43;15.13;;;5.75;;
73954;SDS011;62306;52.516;13.290;2023-05-28T01:45:11;21.58;;;12.00;;
73954;SDS011;62306;52.516;13.290;2023-05-28T01:47:39;21.02;;;9.68;;
73954;SDS011;62306;52.516;13.290;2023-05-28T01:50:07;11.30;;;5.95;;
73954;SDS011;62306;52.516;13.290;2023-05-28T01:52:35;16.30;;;7.40;;
73954;SDS011;62306;52.516;13.290;2023-05-28T01:55:02;14.13;;;5.90;;
73954;SDS011;62306;52.516;13.290;2023-05-28T01:57:30;15.00;;;6.63;;
73954;SDS011;62306;52.516;13.290;2023-05-28T01:59:59;14.93;;;7.63;;
73954;SDS011;62306;52.516;13.290;2023-05-28T02:02:26;14.40;;;6.72;;
73954;SDS011;62306;52.516;13.290;2023-05-28T02:04:53;19.48;;;6.60;;
73954;SDS011;62306;52.516;13.290;2023-05-28T02:07:20;16.50;;;5.88;;
73954;SDS011;62306;52.516;13.290;2023-05-28T02:09:46;16.13;;;5.90;;
73954;SDS011;62306;52.516;13.290;2023-05-28T02:12:13;18.85;;;6.82;;
73954;SDS011;62306;52.516;13.290;2023-05-28T02:14:41;12.60;;;6.20;;
73954;SDS011;62306;52.516;13.290;2023-05-28T02:17:09;12.85;;;5.45;;
73954;SDS011;62306;52.516;13.290;2023-05-28T02:19:37;19.75;;;5.93;;
73954;SDS011;62306;52.516;13.290;2023-05-28T02:22:04;12.57;;;5.18;;
73954;SDS011;62306;52.516;13.290;2023-05-28T02:24:36;17.80;;;6.73;;
73954;SDS011;62306;52.516;13.290;2023-05-28T02:27:03;13.93;;;6.65;;
73954;SDS011;62306;52.516;13.290;2023-05-28T02:29:31;12.18;;;5.72;;
73954;SDS011;62306;52.516;13.290;2023-05-28T02:31:59;14.40;;;6.20;;
73954;SDS011;62306;52.516;13.290;2023-05-28T02:34:27;14.88;;;6.25;;
73954;SDS011;62306;52.516;13.290;2023-05-28T02:36:54;13.43;;;5.75;;
73954;SDS011;62306;52.516;13.290;2023-05-28T02:39:21;12.98;;;6.43;;
73954;SDS011;62306;52.516;13.290;2023-05-28T02:41:49;17.08;;;6.03;;
73954;SDS011;62306;52.516;13.290;2023-05-28T02:44:16;13.18;;;5.32;;
73954;SDS011;62306;52.516;13.290;2023-05-28T02:46:43;11.02;;;6.03;;
73954;SDS011;62306;52.516;13.290;2023-05-28T02:49:10;16.70;;;8.25;;
73954;SDS011;62306;52.516;13.290;2023-05-28T02:51:39;11.95;;;6.65;;
73954;SDS011;62306;52.516;13.290;2023-05-28T02:54:05;14.10;;;6.57;;
73954;SDS011;62306;52.516;13.290;2023-05-28T02:56:32;14.32;;;7.18;;
73954;SDS011;62306;52.516;13.290;2023-05-28T02:58:59;13.18;;;5.38;;
73954;SDS011;62306;52.516;13.290;2023-05-28T03:01:26;11.18;;;6.00;;
73954;SDS011;62306;52.516;13.290;2023-05-28T03:03:53;14.77;;;5.97;;
73954;SDS011;62306;52.516;13.290;2023-05-28T03:06:20;13.98;;;5.75;;
73954;SDS011;62306;52.516;13.290;2023-05-28T03:08:49;14.68;;;5.72;;
73954;SDS011;62306;52.516;13.290;2023-05-28T03:11:16;17.13;;;5.85;;
73954;SDS011;62306;52.516;13.290;2023-05-28T03:13:42;19.52;;;5.93;;
73954;SDS011;62306;52.516;13.290;2023-05-28T03:16:10;21.00;;;5.95;;
73954;SDS011;62306;52.516;13.290;2023-05-28T03:18:37;10.65;;;5.43;;
73954;SDS011;62306;52.516;13.290;2023-05-28T03:21:04;13.10;;;5.75;;
73954;SDS011;62306;52.516;13.290;2023-05-28T03:23:31;17.33;;;5.88;;
73954;SDS011;62306;52.516;13.290;2023-05-28T03:26:00;16.15;;;5.78;;
73954;SDS011;62306;52.516;13.290;2023-05-28T03:28:27;15.77;;;6.38;;
73954;SDS011;62306;52.516;13.290;2023-05-28T03:30:55;11.43;;;6.93;;
73954;SDS011;62306;52.516;13.290;2023-05-28T03:33:23;15.15;;;6.63;;
73954;SDS011;62306;52.516;13.290;2023-05-28T03:35:50;16.77;;;6.30;;
73954;SDS011;62306;52.516;13.290;2023-05-28T03:38:17;12.20;;;6.32;;
73954;SDS011;62306;52.516;13.290;2023-05-28T03:40:44;13.40;;;5.35;;
73954;SDS011;62306;52.516;13.290;2023-05-28T03:43:12;11.55;;;5.75;;
73954;SDS011;62306;52.516;13.290;2023-05-28T03:45:39;16.23;;;6.18;;
73954;SDS011;62306;52.516;13.290;2023-05-28T03:48:15;14.07;;;5.57;;
73954;SDS011;62306;52.516;13.290;2023-05-28T03:50:42;10.68;;;5.15;;
73954;SDS011;62306;52.516;13.290;2023-05-28T03:53:09;12.75;;;5.25;;
73954;SDS011;62306;52.516;13.290;2023-05-28T03:55:36;10.25;;;4.93;;
73954;SDS011;62306;52.516;13.290;2023-05-28T03:58:03;13.75;;;5.70;;
73954;SDS011;62306;52.516;13.290;2023-05-28T04:00:31;16.48;;;6.15;;
73954;SDS011;62306;52.516;13.290;2023-05-28T04:02:59;9.30;;;5.00;;
73954;SDS011;62306;52.516;13.290;2023-05-28T04:05:25;13.18;;;5.85;;
73954;SDS011;62306;52.516;13.290;2023-05-28T04:07:52;20.80;;;6.32;;
73954;SDS011;62306;52.516;13.290;2023-05-28T04:10:19;13.23;;;5.38;;
73954;SDS011;62306;52.516;13.290;2023-05-28T04:12:46;15.60;;;6.10;;
73954;SDS011;62306;52.516;13.290;2023-05-28T04:15:13;12.13;;;5.38;;
73954;SDS011;62306;52.516;13.290;2023-05-28T04:17:42;9.75;;;4.90;;
73954;SDS011;62306;52.516;13.290;2023-05-28T04:20:09;17.30;;;5.20;;
73954;SDS011;62306;52.516;13.290;2023-05-28T04:22:37;21.63;;;5.40;;
73954;SDS011;62306;52.516;13.290;2023-05-28T04:25:04;10.10;;;5.05;;
73954;SDS011;62306;52.516;13.290;2023-05-28T04:27:31;15.60;;;5.10;;
73954;SDS011;62306;52.516;13.290;2023-05-28T04:29:59;14.63;;;5.28;;
73954;SDS011;62306;52.516;13.290;2023-05-28T04:32:26;10.07;;;5.10;;
73954;SDS011;62306;52.516;13.290;2023-05-28T04:34:57;15.27;;;6.20;;
73954;SDS011;62306;52.516;13.290;2023-05-28T04:37:28;10.90;;;5.67;;
73954;SDS011;62306;52.516;13.290;2023-05-28T04:39:58;12.80;;;5.95;;
73954;SDS011;62306;52.516;13.290;2023-05-28T04:42:25;11.23;;;5.82;;
73954;SDS011;62306;52.516;13.290;2023-05-28T04:44:53;13.63;;;5.80;;
73954;SDS011;62306;52.516;13.290;2023-05-28T04:47:20;17.33;;;6.00;;
73954;SDS011;62306;52.516;13.290;2023-05-28T04:49:47;12.98;;;5.18;;
73954;SDS011;62306;52.516;13.290;2023-05-28T04:52:16;11.90;;;5.13;;
73954;SDS011;62306;52.516;13.290;2023-05-28T04:54:44;19.80;;;5.00;;
73954;SDS011;62306;52.516;13.290;2023-05-28T04:57:11;18.75;;;5.03;;
73954;SDS011;62306;52.516;13.290;2023-05-28T04:59:38;9.75;;;4.80;;
73954;SDS011;62306;52.516;13.290;2023-05-28T05:02:05;14.48;;;5.28;;
73954;SDS011;62306;52.516;13.290;2023-05-28T05:04:32;14.30;;;5.25;;
73954;SDS011;62306;52.516;13.290;2023-05-28T05:06:59;18.02;;;5.05;;
73954;SDS011;62306;52.516;13.290;2023-05-28T05:09:28;16.13;;;5.57;;
73954;SDS011;62306;52.516;13.290;2023-05-28T05:11:55;12.32;;;4.53;;
73954;SDS011;62306;52.516;13.290;2023-05-28T05:14:22;13.48;;;4.72;;
73954;SDS011;62306;52.516;13.290;2023-05-28T05:16:49;13.43;;;4.68;;
73954;SDS011;62306;52.516;13.290;2023-05-28T05:19:16;13.38;;;4.50;;
73954;SDS011;62306;52.516;13.290;2023-05-28T05:21:43;7.03;;;4.60;;
73954;SDS011;62306;52.516;13.290;2023-05-28T05:24:10;9.45;;;4.65;;
73954;SDS011;62306;52.516;13.290;2023-05-28T05:26:38;11.63;;;5.03;;
73954;SDS011;62306;52.516;13.290;2023-05-28T05:29:05;13.88;;;4.40;;
73954;SDS011;62306;52.516;13.290;2023-05-28T05:31:32;12.77;;;4.97;;
73954;SDS011;62306;52.516;13.290;2023-05-28T05:33:59;9.02;;;4.78;;
73954;SDS011;62306;52.516;13.290;2023-05-28T05:36:26;12.20;;;4.45;;
73954;SDS011;62306;52.516;13.290;2023-05-28T05:38:53;8.07;;;4.07;;
73954;SDS011;62306;52.516;13.290;2023-05-28T05:41:20;8.60;;;4.47;;
73954;SDS011;62306;52.516;13.290;2023-05-28T05:43:48;8.02;;;4.25;;
73954;SDS011;62306;52.516;13.290;2023-05-28T05:46:15;12.80;;;4.57;;
73954;SDS011;62306;52.516;13.290;2023-05-28T05:48:42;12.98;;;3.97;;
73954;SDS011;62306;52.516;13.290;2023-05-28T05:51:09;9.52;;;4.20;;
73954;SDS011;62306;52.516;13.290;2023-05-28T05:53:42;7.97;;;4.22;;
73954;SDS011;62306;52.516;13.290;2023-05-28T05:56:09;11.43;;;4.35;;
73954;SDS011;62306;52.516;13.290;2023-05-28T05:58:36;13.05;;;5.43;;
73954;SDS011;62306;52.516;13.290;2023-05-28T06:01:04;23.40;;;7.57;;
73954;SDS011;62306;52.516;13.290;2023-05-28T06:03:31;12.85;;;6.93;;
73954;SDS011;62306;52.516;13.290;2023-05-28T06:05:58;16.90;;;8.43;;
73954;SDS011;62306;52.516;13.290;2023-05-28T06:08:25;14.90;;;8.25;;
73954;SDS011;62306;52.516;13.290;2023-05-28T06:10:52;12.25;;;7.50;;
73954;SDS011;62306;52.516;13.290;2023-05-28T06:13:19;10.95;;;6.07;;
73954;SDS011;62306;52.516;13.290;2023-05-28T06:15:46;13.05;;;5.82;;
73954;SDS011;62306;52.516;13.290;2023-05-28T06:18:14;12.73;;;5.78;;
73954;SDS011;62306;52.516;13.290;2023-05-28T06:20:41;12.07;;;5.55;;
73954;SDS011;62306;52.516;13.290;2023-05-28T06:23:08;14.32;;;4.72;;
73954;SDS011;62306;52.516;13.290;2023-05-28T06:25:35;10.15;;;4.28;;
73954;SDS011;62306;52.516;13.290;2023-05-28T06:28:02;8.45;;;4.18;;
73954;SDS011;62306;52.516;13.290;2023-05-28T06:30:29;8.77;;;4.30;;
73954;SDS011;62306;52.516;13.290;2023-05-28T06:32:56;11.23;;;4.18;;
73954;SDS011;62306;52.516;13.290;2023-05-28T06:35:24;6.90;;;3.83;;
73954;SDS011;62306;52.516;13.290;2023-05-28T06:37:51;7.50;;;3.33;;
73954;SDS011;62306;52.516;13.290;2023-05-28T06:40:18;9.38;;;3.70;;
73954;SDS011;62306;52.516;13.290;2023-05-28T06:42:45;7.50;;;3.33;;
73954;SDS011;62306;52.516;13.290;2023-05-28T06:45:12;13.85;;;4.53;;
73954;SDS011;62306;52.516;13.290;2023-05-28T06:47:39;7.60;;;3.15;;
73954;SDS011;62306;52.516;13.290;2023-05-28T06:50:06;6.72;;;3.60;;
73954;SDS011;62306;52.516;13.290;2023-05-28T06:52:35;11.50;;;4.30;;
73954;SDS011;62306;52.516;13.290;2023-05-28T06:55:02;7.57;;;3.50;;
73954;SDS011;62306;52.516;13.290;2023-05-28T06:57:30;11.38;;;4.05;;
73954;SDS011;62306;52.516;13.290;2023-05-28T06:59:58;5.35;;;3.28;;
73954;SDS011;62306;52.516;13.290;2023-05-28T07:02:25;36.30;;;19.55;;
73954;SDS011;62306;52.516;13.290;2023-05-28T07:04:52;9.10;;;4.82;;
73954;SDS011;62306;52.516;13.290;2023-05-28T07:07:19;7.57;;;3.30;;
73954;SDS011;62306;52.516;13.290;2023-05-28T07:09:47;8.57;;;3.38;;
73954;SDS011;62306;52.516;13.290;2023-05-28T07:12:14;8.75;;;3.67;;
73954;SDS011;62306;52.516;13.290;2023-05-28T07:14:41;10.13;;;3.70;;
73954;SDS011;62306;52.516;13.290;2023-05-28T07:17:09;7.45;;;3.83;;
73954;SDS011;62306;52.516;13.290;2023-05-28T07:19:37;8.57;;;3.58;;
73954;SDS011;62306;52.516;13.290;2023-05-28T07:22:04;11.45;;;3.78;;
73954;SDS011;62306;52.516;13.290;2023-05-28T07:24:31;6.22;;;3.35;;
73954;SDS011;62306;52.516;13.290;2023-05-28T07:26:59;6.10;;;3.15;;
73954;SDS011;62306;52.516;13.290;2023-05-28T07:29:26;7.13;;;3.80;;
73954;SDS011;62306;52.516;13.290;2023-05-28T07:31:53;5.80;;;3.35;;
73954;SDS011;62306;52.516;13.290;2023-05-28T07:34:20;6.78;;;3.03;;
73954;SDS011;62306;52.516;13.290;2023-05-28T07:36:47;6.68;;;3.35;;
73954;SDS011;62306;52.516;13.290;2023-05-28T07:39:14;5.18;;;2.58;;
73954;SDS011;62306;52.516;13.290;2023-05-28T07:41:41;11.32;;;2.75;;
73954;SDS011;62306;52.516;13.290;2023-05-28T07:44:10;8.25;;;2.60;;
73954;SDS011;62306;52.516;13.290;2023-05-28T07:46:37;8.75;;;3.15;;
73954;SDS011;62306;52.516;13.290;2023-05-28T07:49:04;8.23;;;3.33;;
73954;SDS011;62306;52.516;13.290;2023-05-28T07:51:31;8.27;;;2.70;;
73954;SDS011;62306;52.516;13.290;2023-05-28T07:53:57;6.18;;;2.47;;
73954;SDS011;62306;52.516;13.290;2023-05-28T07:56:24;9.25;;;2.80;;
73954;SDS011;62306;52.516;13.290;2023-05-28T07:58:52;5.93;;;2.80;;
73954;SDS011;62306;52.516;13.290;2023-05-28T08:01:20;6.75;;;3.13;;
73954;SDS011;62306;52.516;13.290;2023-05-28T08:03:47;9.07;;;2.92;;
73954;SDS011;62306;52.516;13.290;2023-05-28T08:06:16;9.13;;;2.97;;
73954;SDS011;62306;52.516;13.290;2023-05-28T08:08:43;5.63;;;2.30;;
73954;SDS011;62306;52.516;13.290;2023-05-28T08:11:10;9.77;;;2.67;;
73954;SDS011;62306;52.516;13.290;2023-05-28T08:13:38;7.35;;;2.60;;
73954;SDS011;62306;52.516;13.290;2023-05-28T08:16:05;6.55;;;2.75;;
73954;SDS011;62306;52.516;13.290;2023-05-28T08:18:34;8.13;;;2.72;;
73954;SDS011;62306;52.516;13.290;2023-05-28T08:21:01;5.82;;;2.28;;
73954;SDS011;62306;52.516;13.290;2023-05-28T08:23:28;8.40;;;2.83;;
73954;SDS011;62306;52.516;13.290;2023-05-28T08:25:59;6.65;;;2.72;;
73954;SDS011;62306;52.516;13.290;2023-05-28T08:28:26;7.47;;;2.80;;
73954;SDS011;62306;52.516;13.290;2023-05-28T08:30:54;3.97;;;2.42;;
73954;SDS011;62306;52.516;13.290;2023-05-28T08:33:21;5.40;;;2.88;;
73954;SDS011;62306;52.516;13.290;2023-05-28T08:35:49;7.85;;;2.55;;
73954;SDS011;62306;52.516;13.290;2023-05-28T08:38:16;5.22;;;2.90;;
73954;SDS011;62306;52.516;13.290;2023-05-28T08:40:46;7.68;;;2.50;;
73954;SDS011;62306;52.516;13.290;2023-05-28T08:43:15;5.80;;;2.55;;
73954;SDS011;62306;52.516;13.290;2023-05-28T08:45:43;11.80;;;2.97;;
73954;SDS011;62306;52.516;13.290;2023-05-28T08:48:10;7.47;;;2.70;;
73954;SDS011;62306;52.516;13.290;2023-05-28T08:50:38;10.15;;;2.42;;
73954;SDS011;62306;52.516;13.290;2023-05-28T08:53:13;8.07;;;2.35;;
73954;SDS011;62306;52.516;13.290;2023-05-28T08:55:43;5.95;;;2.60;;
73954;SDS011;62306;52.516;13.290;2023-05-28T08:58:10;7.53;;;3.08;;
73954;SDS011;62306;52.516;13.290;2023-05-28T09:00:37;7.40;;;2.35;;
73954;SDS011;62306;52.516;13.290;2023-05-28T09:03:05;4.03;;;2.17;;
73954;SDS011;62306;52.516;13.290;2023-05-28T09:05:34;5.32;;;2.72;;
73954;SDS011;62306;52.516;13.290;2023-05-28T09:08:03;6.47;;;2.50;;
73954;SDS011;62306;52.516;13.290;2023-05-28T09:10:33;8.18;;;2.85;;
73954;SDS011;62306;52.516;13.290;2023-05-28T09:13:00;6.25;;;2.40;;
73954;SDS011;62306;52.516;13.290;2023-05-28T09:15:28;26.90;;;4.40;;
73954;SDS011;62306;52.516;13.290;2023-05-28T09:17:55;9.38;;;2.80;;
73954;SDS011;62306;52.516;13.290;2023-05-28T09:20:24;5.35;;;2.42;;
73954;SDS011;62306;52.516;13.290;2023-05-28T09:22:58;6.22;;;2.95;;
73954;SDS011;62306;52.516;13.290;2023-05-28T09:25:26;5.68;;;2.35;;
73954;SDS011;62306;52.516;13.290;2023-05-28T09:27:56;9.43;;;2.95;;
73954;SDS011;62306;52.516;13.290;2023-05-28T09:30:25;7.32;;;2.42;;
73954;SDS011;62306;52.516;13.290;2023-05-28T09:33:00;7.45;;;3.33;;
73954;SDS011;62306;52.516;13.290;2023-05-28T09:35:28;11.30;;;2.75;;
73954;SDS011;62306;52.516;13.290;2023-05-28T09:37:59;7.78;;;2.35;;
73954;SDS011;62306;52.516;13.290;2023-05-28T09:40:26;8.15;;;3.40;;
73954;SDS011;62306;52.516;13.290;2023-05-28T09:42:53;9.63;;;2.67;;
73954;SDS011;62306;52.516;13.290;2023-05-28T09:45:23;6.18;;;3.00;;
73954;SDS011;62306;52.516;13.290;2023-05-28T09:47:51;6.63;;;2.90;;
73954;SDS011;62306;52.516;13.290;2023-05-28T09:50:18;5.28;;;3.08;;
73954;SDS011;62306;52.516;13.290;2023-05-28T09:52:45;10.73;;;2.83;;
73954;SDS011;62306;52.516;13.290;2023-05-28T09:55:13;7.40;;;2.67;;
73954;SDS011;62306;52.516;13.290;2023-05-28T09:57:45;5.13;;;2.92;;
73954;SDS011;62306;52.516;13.290;2023-05-28T10:00:17;7.10;;;2.30;;
73954;SDS011;62306;52.516;13.290;2023-05-28T10:02:50;4.72;;;2.30;;
73954;SDS011;62306;52.516;13.290;2023-05-28T10:05:24;8.45;;;2.83;;
73954;SDS011;62306;52.516;13.290;2023-05-28T10:07:54;7.45;;;2.58;;
73954;SDS011;62306;52.516;13.290;2023-05-28T10:10:22;10.63;;;2.65;;
73954;SDS011;62306;52.516;13.290;2023-05-28T10:12:51;8.88;;;2.70;;
73954;SDS011;62306;52.516;13.290;2023-05-28T10:15:21;7.47;;;2.08;;
73954;SDS011;62306;52.516;13.290;2023-05-28T10:17:48;3.90;;;2.65;;
73954;SDS011;62306;52.516;13.290;2023-05-28T10:20:17;5.32;;;2.47;;
73954;SDS011;62306;52.516;13.290;2023-05-28T10:22:44;6.97;;;3.05;;
73954;SDS011;62306;52.516;13.290;2023-05-28T10:25:12;4.85;;;2.40;;
73954;SDS011;62306;52.516;13.290;2023-05-28T10:27:42;6.95;;;2.58;;
73954;SDS011;62306;52.516;13.290;2023-05-28T10:30:11;6.90;;;4.05;;
73954;SDS011;62306;52.516;13.290;2023-05-28T10:32:40;3.47;;;2.55;;
73954;SDS011;62306;52.516;13.290;2023-05-28T10:35:09;4.75;;;2.60;;
73954;SDS011;62306;52.516;13.290;2023-05-28T10:37:37;7.55;;;2.40;;
73954;SDS011;62306;52.516;13.290;2023-05-28T10:40:06;7.95;;;2.40;;
73954;SDS011;62306;52.516;13.290;2023-05-28T10:42:38;3.35;;;2.05;;
73954;SDS011;62306;52.516;13.290;2023-05-28T10:45:06;5.70;;;2.60;;
73954;SDS011;62306;52.516;13.290;2023-05-28T10:47:35;7.90;;;3.63;;
73954;SDS011;62306;52.516;13.290;2023-05-28T10:50:11;6.35;;;3.03;;
73954;SDS011;62306;52.516;13.290;2023-05-28T10:52:39;4.32;;;2.15;;
73954;SDS011;62306;52.516;13.290;2023-05-28T10:55:07;7.63;;;2.72;;
73954;SDS011;62306;52.516;13.290;2023-05-28T10:57:39;11.02;;;6.57;;
73954;SDS011;62306;52.516;13.290;2023-05-28T11:00:07;10.77;;;3.25;;
73954;SDS011;62306;52.516;13.290;2023-05-28T11:02:38;8.65;;;3.25;;
73954;SDS011;62306;52.516;13.290;2023-05-28T11:05:06;8.88;;;2.83;;
73954;SDS011;62306;52.516;13.290;2023-05-28T11:07:35;5.80;;;3.00;;
73954;SDS011;62306;52.516;13.290;2023-05-28T11:10:04;8.20;;;2.80;;
73954;SDS011;62306;52.516;13.290;2023-05-28T11:12:33;6.53;;;2.78;;
73954;SDS011;62306;52.516;13.290;2023-05-28T11:15:02;6.05;;;2.47;;
73954;SDS011;62306;52.516;13.290;2023-05-28T11:17:34;5.18;;;3.00;;
73954;SDS011;62306;52.516;13.290;2023-05-28T11:20:03;6.85;;;2.75;;
73954;SDS011;62306;52.516;13.290;2023-05-28T11:22:32;9.48;;;2.80;;
73954;SDS011;62306;52.516;13.290;2023-05-28T11:25:05;6.30;;;2.72;;
73954;SDS011;62306;52.516;13.290;2023-05-28T11:27:33;11.90;;;3.35;;
73954;SDS011;62306;52.516;13.290;2023-05-28T11:30:02;5.15;;;2.90;;
73954;SDS011;62306;52.516;13.290;2023-05-28T11:32:35;14.75;;;6.82;;
73954;SDS011;62306;52.516;13.290;2023-05-28T11:35:02;6.95;;;2.47;;
73954;SDS011;62306;52.516;13.290;2023-05-28T11:37:30;4.30;;;2.35;;
73954;SDS011;62306;52.516;13.290;2023-05-28T11:39:59;5.25;;;2.97;;
73954;SDS011;62306;52.516;13.290;2023-05-28T11:42:30;7.55;;;2.25;;
73954;SDS011;62306;52.516;13.290;2023-05-28T11:44:58;6.68;;;2.90;;
73954;SDS011;62306;52.516;13.290;2023-05-28T11:47:25;7.78;;;2.72;;
73954;SDS011;62306;52.516;13.290;2023-05-28T11:49:52;5.15;;;2.30;;
73954;SDS011;62306;52.516;13.290;2023-05-28T11:52:21;4.20;;;2.67;;
73954;SDS011;62306;52.516;13.290;2023-05-28T11:54:52;3.90;;;2.70;;
73954;SDS011;62306;52.516;13.290;2023-05-28T11:57:22;6.63;;;2.58;;
73954;SDS011;62306;52.516;13.290;2023-05-28T11:59:54;5.60;;;2.28;;
73954;SDS011;62306;52.516;13.290;2023-05-28T12:02:24;4.38;;;2.53;;
73954;SDS011;62306;52.516;13.290;2023-05-28T12:04:53;6.15;;;2.40;;
73954;SDS011;62306;52.516;13.290;2023-05-28T12:07:21;5.40;;;2.42;;
73954;SDS011;62306;52.516;13.290;2023-05-28T12:09:48;9.82;;;3.42;;
73954;SDS011;62306;52.516;13.290;2023-05-28T12:12:29;7.80;;;2.40;;
73954;SDS011;62306;52.516;13.290;2023-05-28T12:14:57;3.85;;;2.60;;
73954;SDS011;62306;52.516;13.290;2023-05-28T12:17:24;6.82;;;2.60;;
73954;SDS011;62306;52.516;13.290;2023-05-28T12:19:51;6.47;;;2.65;;
73954;SDS011;62306;52.516;13.290;2023-05-28T12:22:18;5.82;;;2.97;;
73954;SDS011;62306;52.516;13.290;2023-05-28T12:24:49;5.32;;;2.50;;
73954;SDS011;62306;52.516;13.290;2023-05-28T12:29:46;6.57;;;2.97;;
73954;SDS011;62306;52.516;13.290;2023-05-28T12:32:13;5.82;;;2.75;;
73954;SDS011;62306;52.516;13.290;2023-05-28T12:34:40;4.93;;;2.53;;
73954;SDS011;62306;52.516;13.290;2023-05-28T12:37:08;9.50;;;2.40;;
73954;SDS011;62306;52.516;13.290;2023-05-28T12:39:35;5.18;;;2.65;;
73954;SDS011;62306;52.516;13.290;2023-05-28T12:42:03;6.47;;;2.25;;
73954;SDS011;62306;52.516;13.290;2023-05-28T12:44:30;7.68;;;2.83;;
73954;SDS011;62306;52.516;13.290;2023-05-28T12:46:58;3.80;;;2.35;;
73954;SDS011;62306;52.516;13.290;2023-05-28T12:49:25;6.45;;;3.00;;
73954;SDS011;62306;52.516;13.290;2023-05-28T12:51:52;5.10;;;2.20;;
73954;SDS011;62306;52.516;13.290;2023-05-28T12:54:19;3.20;;;2.30;;
73954;SDS011;62306;52.516;13.290;2023-05-28T12:56:46;4.25;;;2.17;;
73954;SDS011;62306;52.516;13.290;2023-05-28T12:59:20;4.47;;;2.38;;
73954;SDS011;62306;52.516;13.290;2023-05-28T13:01:47;3.78;;;2.10;;
73954;SDS011;62306;52.516;13.290;2023-05-28T13:04:16;5.68;;;2.45;;
73954;SDS011;62306;52.516;13.290;2023-05-28T13:06:43;4.50;;;2.28;;
73954;SDS011;62306;52.516;13.290;2023-05-28T13:09:10;5.78;;;2.60;;
73954;SDS011;62306;52.516;13.290;2023-05-28T13:11:38;5.32;;;2.47;;
73954;SDS011;62306;52.516;13.290;2023-05-28T13:14:05;5.82;;;2.85;;
73954;SDS011;62306;52.516;13.290;2023-05-28T13:16:32;4.80;;;2.63;;
73954;SDS011;62306;52.516;13.290;2023-05-28T13:19:00;5.35;;;2.33;;
73954;SDS011;62306;52.516;13.290;2023-05-28T13:21:29;10.23;;;2.70;;
73954;SDS011;62306;52.516;13.290;2023-05-28T13:23:57;7.72;;;3.17;;
73954;SDS011;62306;52.516;13.290;2023-05-28T13:26:25;6.43;;;2.47;;
73954;SDS011;62306;52.516;13.290;2023-05-28T13:28:53;15.00;;;4.57;;
73954;SDS011;62306;52.516;13.290;2023-05-28T13:31:20;8.18;;;2.50;;
73954;SDS011;62306;52.516;13.290;2023-05-28T13:33:47;5.60;;;2.58;;
73954;SDS011;62306;52.516;13.290;2023-05-28T13:36:14;10.98;;;2.95;;
73954;SDS011;62306;52.516;13.290;2023-05-28T13:38:42;3.38;;;2.30;;
73954;SDS011;62306;52.516;13.290;2023-05-28T13:41:09;8.18;;;2.42;;
73954;SDS011;62306;52.516;13.290;2023-05-28T13:43:38;4.03;;;2.30;;
73954;SDS011;62306;52.516;13.290;2023-05-28T13:46:06;7.63;;;3.65;;
73954;SDS011;62306;52.516;13.290;2023-05-28T13:48:33;5.18;;;2.25;;
73954;SDS011;62306;52.516;13.290;2023-05-28T13:51:01;4.50;;;2.30;;
73954;SDS011;62306;52.516;13.290;2023-05-28T13:53:29;3.78;;;2.53;;
73954;SDS011;62306;52.516;13.290;2023-05-28T13:55:58;6.35;;;2.50;;
73954;SDS011;62306;52.516;13.290;2023-05-28T13:58:25;8.85;;;2.75;;
73954;SDS011;62306;52.516;13.290;2023-05-28T14:00:52;6.97;;;2.40;;
73954;SDS011;62306;52.516;13.290;2023-05-28T14:03:19;4.32;;;1.98;;
73954;SDS011;62306;52.516;13.290;2023-05-28T14:05:46;5.50;;;2.47;;
73954;SDS011;62306;52.516;13.290;2023-05-28T14:08:14;3.35;;;2.50;;
73954;SDS011;62306;52.516;13.290;2023-05-28T14:10:40;6.13;;;3.22;;
73954;SDS011;62306;52.516;13.290;2023-05-28T14:13:09;7.10;;;3.78;;
73954;SDS011;62306;52.516;13.290;2023-05-28T14:15:36;3.72;;;2.63;;
73954;SDS011;62306;52.516;13.290;2023-05-28T14:18:03;5.20;;;2.58;;
73954;SDS011;62306;52.516;13.290;2023-05-28T14:20:31;9.38;;;2.90;;
73954;SDS011;62306;52.516;13.290;2023-05-28T14:22:59;5.90;;;2.67;;
73954;SDS011;62306;52.516;13.290;2023-05-28T14:25:27;6.05;;;2.58;;
73954;SDS011;62306;52.516;13.290;2023-05-28T14:27:54;13.00;;;6.32;;
73954;SDS011;62306;52.516;13.290;2023-05-28T14:30:23;13.85;;;6.05;;
73954;SDS011;62306;52.516;13.290;2023-05-28T14:32:50;6.75;;;2.60;;
73954;SDS011;62306;52.516;13.290;2023-05-28T14:35:17;16.50;;;3.55;;